Time;durP1;ratioP1;P1;durP2;ratioP2;P2;SDS_P1;SDS_P2;PMS_P1;PMS_P2;Temp;Humidity;BMP_temperature;BMP_pressure;BME280_temperature;BME280_humidity;BME280_pressure;Samples;Min_cycle;Max_cycle;Signal;HPM_P1;HPM_P2
2023/03/29 00:02:20;;;;;;;7.37;4.40;;;;;;;;;;4996919;28;20816;-73
2023/03/29 00:04:49;;;;;;;8.37;4.50;;;;;;;;;;4995475;28;20192;-72
2023/03/29 00:07:14;;;;;;;6.10;3.80;;;;;;;;;;4965930;28;20566;-73
2023/03/29 00:09:39;;;;;;;5.57;4.30;;;;;;;;;;4985648;28;20436;-74
2023/03/29 00:12:05;;;;;;;8.00;4.33;;;;;;;;;;4984006;28;20573;-72
2023/03/29 00:14:30;;;;;;;5.40;4.20;;;;;;;;;;4996496;28;20185;-73
2023/03/29 00:16:56;;;;;;;4.40;4.00;;;;;;;;;;4992988;28;20188;-72
2023/03/29 00:19:22;;;;;;;7.47;4.50;;;;;;;;;;4988138;28;20250;-75
2023/03/29 00:21:47;;;;;;;6.73;4.33;;;;;;;;;;4989249;28;20205;-72
2023/03/29 00:24:12;;;;;;;9.30;4.20;;;;;;;;;;4991854;28;20192;-75
2023/03/29 00:26:38;;;;;;;7.10;4.10;;;;;;;;;;4991272;28;20682;-74
2023/03/29 00:29:03;;;;;;;10.37;6.53;;;;;;;;;;4990480;28;20277;-72
2023/03/29 00:31:34;;;;;;;5.90;3.60;;;;;;;;;;4986907;28;20205;-72
2023/03/29 00:34:00;;;;;;;6.93;3.63;;;;;;;;;;4986886;28;20234;-76
2023/03/29 00:36:26;;;;;;;4.93;3.47;;;;;;;;;;4988801;28;20436;-75
2023/03/29 00:38:52;;;;;;;7.20;4.00;;;;;;;;;;4992269;28;20193;-73
2023/03/29 00:41:17;;;;;;;5.53;3.10;;;;;;;;;;4988892;28;20467;-73
2023/03/29 00:43:50;;;;;;;3.93;3.30;;;;;;;;;;4988706;28;20196;-73
2023/03/29 00:46:16;;;;;;;5.80;3.73;;;;;;;;;;4994490;28;20710;-74
2023/03/29 00:48:41;;;;;;;7.03;3.07;;;;;;;;;;4992535;28;20578;-73
2023/03/29 00:51:09;;;;;;;6.50;2.60;;;;;;;;;;4987924;28;20949;-71
2023/03/29 00:53:39;;;;;;;9.50;3.43;;;;;;;;;;4987101;28;20234;-75
2023/03/29 00:56:10;;;;;;;6.13;3.17;;;;;;;;;;4995788;28;20436;-73
2023/03/29 00:58:39;;;;;;;4.90;3.33;;;;;;;;;;4987809;28;20428;-74
2023/03/29 01:01:10;;;;;;;5.17;2.43;;;;;;;;;;4991243;28;20456;-73
2023/03/29 01:03:45;;;;;;;5.50;3.07;;;;;;;;;;4992862;28;20501;-73
2023/03/29 01:06:12;;;;;;;4.20;2.70;;;;;;;;;;4991043;28;20435;-74
2023/03/29 01:08:44;;;;;;;5.10;3.03;;;;;;;;;;4986091;28;20436;-73
2023/03/29 01:11:13;;;;;;;7.00;2.87;;;;;;;;;;4991637;28;20475;-75
2023/03/29 01:13:59;;;;;;;4.97;2.10;;;;;;;;;;4996435;28;20482;-73
2023/03/29 01:16:25;;;;;;;2.93;2.50;;;;;;;;;;5003027;28;20440;-73
2023/03/29 01:18:51;;;;;;;3.37;2.57;;;;;;;;;;4991664;28;20421;-73
2023/03/29 01:21:18;;;;;;;3.63;2.70;;;;;;;;;;4995362;28;20463;-74
2023/03/29 01:23:44;;;;;;;2.80;2.47;;;;;;;;;;4991416;28;20714;-73
2023/03/29 01:26:27;;;;;;;2.60;2.40;;;;;;;;;;4990593;28;20501;-76
2023/03/29 01:29:19;;;;;;;4.60;2.47;;;;;;;;;;4994487;28;20428;-76
2023/03/29 01:31:46;;;;;;;3.63;2.43;;;;;;;;;;5019421;28;20476;-71
2023/03/29 01:34:24;;;;;;;3.50;2.40;;;;;;;;;;4995205;28;20562;-72
2023/03/29 01:37:23;;;;;;;4.40;2.50;;;;;;;;;;4995168;28;20438;-73
2023/03/29 01:39:49;;;;;;;2.43;2.23;;;;;;;;;;4949393;28;20437;-71
2023/03/29 01:42:14;;;;;;;3.47;2.13;;;;;;;;;;4989016;28;20820;-73
2023/03/29 01:44:50;;;;;;;3.00;2.03;;;;;;;;;;4996437;28;20435;-71
2023/03/29 01:47:18;;;;;;;4.23;2.50;;;;;;;;;;4992186;28;20667;-72
2023/03/29 01:49:52;;;;;;;3.03;2.50;;;;;;;;;;4995061;28;20451;-72
2023/03/29 01:52:19;;;;;;;5.50;2.70;;;;;;;;;;4999243;28;20464;-73
2023/03/29 01:54:57;;;;;;;3.80;2.30;;;;;;;;;;4997436;28;20436;-72
2023/03/29 01:57:24;;;;;;;2.70;2.30;;;;;;;;;;4998290;28;20436;-74
2023/03/29 01:59:51;;;;;;;7.90;2.37;;;;;;;;;;4996263;28;21528;-73
2023/03/29 02:02:17;;;;;;;3.60;2.37;;;;;;;;;;4999134;28;20445;-74
2023/03/29 02:04:48;;;;;;;4.83;2.53;;;;;;;;;;4995632;28;20459;-72
2023/03/29 02:07:15;;;;;;;3.60;2.23;;;;;;;;;;4997690;28;20198;-73
2023/03/29 02:09:43;;;;;;;6.27;2.57;;;;;;;;;;5000981;28;20486;-74
2023/03/29 02:12:10;;;;;;;3.10;2.70;;;;;;;;;;4997554;28;20472;-76
2023/03/29 02:14:35;;;;;;;2.93;2.63;;;;;;;;;;4996236;28;20918;-75
2023/03/29 02:17:13;;;;;;;5.00;2.90;;;;;;;;;;4997399;28;20451;-75
2023/03/29 02:19:39;;;;;;;3.20;2.40;;;;;;;;;;4995432;28;20188;-72
2023/03/29 02:22:08;;;;;;;4.67;3.00;;;;;;;;;;4987237;28;20457;-73
2023/03/29 02:24:35;;;;;;;3.13;2.70;;;;;;;;;;4988911;28;20262;-74
2023/03/29 02:27:07;;;;;;;7.10;2.87;;;;;;;;;;4992703;28;20930;-73
2023/03/29 02:29:32;;;;;;;3.20;2.53;;;;;;;;;;4989531;28;20494;-73
2023/03/29 02:32:04;;;;;;;4.60;2.80;;;;;;;;;;4990976;28;20479;-74
2023/03/29 02:34:36;;;;;;;4.23;2.80;;;;;;;;;;4992043;28;20169;-74
2023/03/29 02:37:05;;;;;;;3.40;2.83;;;;;;;;;;4985710;28;20463;-73
2023/03/29 02:39:34;;;;;;;4.80;3.40;;;;;;;;;;4988921;28;20451;-77
2023/03/29 02:42:00;;;;;;;4.40;2.80;;;;;;;;;;4989414;28;20452;-73
2023/03/29 02:44:29;;;;;;;3.30;3.00;;;;;;;;;;4994767;28;20490;-73
2023/03/29 02:47:01;;;;;;;5.93;2.87;;;;;;;;;;4992467;28;21319;-71
2023/03/29 02:49:26;;;;;;;6.00;2.77;;;;;;;;;;4986642;28;20428;-73
2023/03/29 02:51:53;;;;;;;4.03;2.60;;;;;;;;;;4993126;28;20530;-73
2023/03/29 02:54:20;;;;;;;5.03;3.00;;;;;;;;;;4992895;28;20650;-75
2023/03/29 02:56:48;;;;;;;4.20;2.80;;;;;;;;;;4989454;28;20841;-73
2023/03/29 02:59:15;;;;;;;4.20;2.90;;;;;;;;;;4991103;28;20439;-71
2023/03/29 03:01:43;;;;;;;5.20;3.20;;;;;;;;;;4992418;28;20452;-72
2023/03/29 03:04:09;;;;;;;4.87;2.93;;;;;;;;;;4986579;28;20573;-74
2023/03/29 03:06:36;;;;;;;4.70;3.40;;;;;;;;;;4989129;28;20477;-76
2023/03/29 03:09:03;;;;;;;6.20;3.23;;;;;;;;;;4991165;28;20491;-74
2023/03/29 03:11:29;;;;;;;3.60;2.90;;;;;;;;;;4990154;28;20476;-74
2023/03/29 03:13:54;;;;;;;8.60;3.33;;;;;;;;;;4988583;22;21011;-71
2023/03/29 03:16:20;;;;;;;3.23;2.93;;;;;;;;;;4980174;28;20235;-71
2023/03/29 03:18:47;;;;;;;4.93;3.10;;;;;;;;;;4971664;28;20193;-71
2023/03/29 03:21:12;;;;;;;4.37;3.57;;;;;;;;;;4979194;28;20498;-70
2023/03/29 03:23:38;;;;;;;5.80;3.90;;;;;;;;;;4975998;28;20472;-71
2023/03/29 03:26:03;;;;;;;7.83;4.20;;;;;;;;;;4975115;28;20178;-71
2023/03/29 03:28:28;;;;;;;5.70;4.10;;;;;;;;;;4967711;28;20567;-71
2023/03/29 03:30:54;;;;;;;5.57;4.13;;;;;;;;;;4979288;28;20210;-70
2023/03/29 03:33:19;;;;;;;6.93;3.97;;;;;;;;;;4972609;28;20609;-71
2023/03/29 03:35:47;;;;;;;7.27;4.30;;;;;;;;;;4969932;28;20568;-71
2023/03/29 03:38:13;;;;;;;4.67;3.80;;;;;;;;;;4967030;28;20209;-71
2023/03/29 03:40:38;;;;;;;6.63;4.87;;;;;;;;;;4975729;28;20491;-71
2023/03/29 03:43:03;;;;;;;6.50;4.77;;;;;;;;;;4982096;28;20186;-71
2023/03/29 03:45:28;;;;;;;8.13;5.10;;;;;;;;;;4976497;28;20208;-71
2023/03/29 03:47:54;;;;;;;7.97;5.90;;;;;;;;;;4978684;28;20182;-71
2023/03/29 03:50:19;;;;;;;9.90;6.17;;;;;;;;;;4980037;28;20186;-70
2023/03/29 03:52:44;;;;;;;6.97;6.27;;;;;;;;;;4982311;28;20214;-70
2023/03/29 03:55:10;;;;;;;6.70;5.10;;;;;;;;;;4983222;28;20226;-71
2023/03/29 03:57:36;;;;;;;10.93;5.70;;;;;;;;;;4984234;28;20193;-71
2023/03/29 04:00:08;;;;;;;9.03;6.87;;;;;;;;;;4985101;28;20413;-71
2023/03/29 04:02:35;;;;;;;8.83;6.50;;;;;;;;;;4984115;28;20444;-71
2023/03/29 04:05:02;;;;;;;7.57;5.73;;;;;;;;;;4983114;28;20983;-71
2023/03/29 04:07:27;;;;;;;8.83;6.97;;;;;;;;;;4983695;28;20182;-71
2023/03/29 04:09:53;;;;;;;9.83;7.17;;;;;;;;;;4983611;28;20430;-71
2023/03/29 04:12:18;;;;;;;9.10;7.00;;;;;;;;;;4981448;28;20220;-71
2023/03/29 04:14:45;;;;;;;9.73;7.53;;;;;;;;;;4984765;28;20319;-70
2023/03/29 04:17:11;;;;;;;13.00;7.47;;;;;;;;;;4984482;28;20243;-71
2023/03/29 04:19:36;;;;;;;9.23;7.30;;;;;;;;;;4980776;28;20864;-71
2023/03/29 04:22:01;;;;;;;9.20;7.50;;;;;;;;;;4977768;28;20198;-71
2023/03/29 04:24:27;;;;;;;9.97;8.13;;;;;;;;;;4977601;28;20235;-71
2023/03/29 04:26:52;;;;;;;13.40;9.20;;;;;;;;;;4976261;28;20186;-71
2023/03/29 04:29:17;;;;;;;14.07;8.30;;;;;;;;;;4977516;28;20242;-71
2023/03/29 04:31:42;;;;;;;10.63;8.50;;;;;;;;;;4975406;28;20205;-71
2023/03/29 04:34:08;;;;;;;11.67;8.20;;;;;;;;;;4979905;28;20206;-71
2023/03/29 04:36:33;;;;;;;14.03;8.53;;;;;;;;;;4977487;28;20268;-70
2023/03/29 04:39:00;;;;;;;14.10;8.67;;;;;;;;;;4977675;28;20247;-71
2023/03/29 04:41:26;;;;;;;12.97;9.30;;;;;;;;;;4976780;28;20189;-71
2023/03/29 04:43:52;;;;;;;13.60;9.17;;;;;;;;;;4976130;28;20461;-71
2023/03/29 04:46:17;;;;;;;14.43;9.30;;;;;;;;;;4980288;28;20917;-71
2023/03/29 04:48:42;;;;;;;15.77;10.30;;;;;;;;;;4980612;28;20444;-70
2023/03/29 04:51:08;;;;;;;14.80;10.30;;;;;;;;;;4986702;28;20213;-71
2023/03/29 04:53:33;;;;;;;12.77;9.20;;;;;;;;;;4970120;28;26538;-71
2023/03/29 04:55:59;;;;;;;15.53;10.63;;;;;;;;;;4979201;28;20251;-70
2023/03/29 04:58:24;;;;;;;15.07;10.33;;;;;;;;;;4975869;28;20184;-71
2023/03/29 05:00:50;;;;;;;14.40;9.80;;;;;;;;;;4978330;28;20198;-70
2023/03/29 05:03:16;;;;;;;14.97;10.47;;;;;;;;;;4979131;28;20719;-71
2023/03/29 05:05:41;;;;;;;15.17;10.60;;;;;;;;;;4978445;28;20217;-71
2023/03/29 05:08:08;;;;;;;16.03;10.90;;;;;;;;;;4981508;28;20828;-71
2023/03/29 05:10:33;;;;;;;13.53;11.30;;;;;;;;;;4979428;28;20197;-71
2023/03/29 05:12:59;;;;;;;14.00;10.83;;;;;;;;;;4978968;28;20800;-71
2023/03/29 05:15:24;;;;;;;18.40;11.23;;;;;;;;;;4982974;28;20206;-71
2023/03/29 05:17:49;;;;;;;14.60;10.63;;;;;;;;;;4982467;28;20558;-71
2023/03/29 05:20:16;;;;;;;16.93;12.10;;;;;;;;;;4978153;28;20483;-71
2023/03/29 05:22:42;;;;;;;15.47;11.47;;;;;;;;;;4982029;28;20178;-71
2023/03/29 05:25:08;;;;;;;17.93;11.70;;;;;;;;;;4979699;28;20461;-71
2023/03/29 05:27:33;;;;;;;14.20;10.87;;;;;;;;;;4973977;28;26725;-70
2023/03/29 05:30:00;;;;;;;13.67;10.97;;;;;;;;;;4965646;28;20234;-71
2023/03/29 05:32:25;;;;;;;15.90;10.73;;;;;;;;;;4978478;28;20618;-71
2023/03/29 05:34:51;;;;;;;14.53;10.50;;;;;;;;;;4979492;28;20453;-71
2023/03/29 05:37:17;;;;;;;21.33;11.80;;;;;;;;;;4961894;28;20560;-71
2023/03/29 05:39:42;;;;;;;12.13;10.33;;;;;;;;;;4981091;28;20456;-71
2023/03/29 05:42:11;;;;;;;13.33;10.20;;;;;;;;;;4975217;28;20802;-70
2023/03/29 05:44:36;;;;;;;16.57;11.10;;;;;;;;;;4975059;28;20214;-71
2023/03/29 05:47:01;;;;;;;12.80;10.30;;;;;;;;;;4981609;28;20910;-70
2023/03/29 05:49:27;;;;;;;13.60;11.13;;;;;;;;;;4979505;28;20239;-70
2023/03/29 05:51:55;;;;;;;15.03;11.67;;;;;;;;;;4981680;28;20515;-70
2023/03/29 05:54:21;;;;;;;16.37;10.50;;;;;;;;;;4982473;28;20226;-71
2023/03/29 05:56:46;;;;;;;12.80;10.93;;;;;;;;;;4980324;28;20550;-71
2023/03/29 05:59:12;;;;;;;16.47;11.20;;;;;;;;;;4978868;28;20185;-71
2023/03/29 06:01:38;;;;;;;15.83;11.57;;;;;;;;;;4963094;28;20190;-71
2023/03/29 06:04:05;;;;;;;17.80;11.17;;;;;;;;;;4971596;28;20611;-71
2023/03/29 06:06:30;;;;;;;16.77;12.10;;;;;;;;;;4976656;28;20453;-71
2023/03/29 06:08:55;;;;;;;17.40;12.03;;;;;;;;;;4980728;28;20490;-72
2023/03/29 06:11:23;;;;;;;13.53;11.20;;;;;;;;;;4980716;28;20262;-72
2023/03/29 06:13:48;;;;;;;17.83;12.40;;;;;;;;;;4978242;28;20209;-72
2023/03/29 06:16:13;;;;;;;15.60;12.27;;;;;;;;;;4982683;28;20445;-72
2023/03/29 06:18:39;;;;;;;20.03;11.87;;;;;;;;;;4980395;28;20178;-71
2023/03/29 06:21:06;;;;;;;16.00;10.93;;;;;;;;;;4977565;28;20251;-71
2023/03/29 06:23:32;;;;;;;15.27;11.70;;;;;;;;;;4981679;28;20429;-72
2023/03/29 06:25:58;;;;;;;15.77;11.90;;;;;;;;;;4983453;28;20456;-71
2023/03/29 06:28:24;;;;;;;16.77;12.63;;;;;;;;;;4979421;28;20272;-71
2023/03/29 06:30:50;;;;;;;17.20;12.07;;;;;;;;;;4981631;28;20861;-71
2023/03/29 06:33:19;;;;;;;21.73;11.30;;;;;;;;;;4976852;28;20433;-71
2023/03/29 06:35:48;;;;;;;16.03;11.33;;;;;;;;;;4978529;28;20181;-70
2023/03/29 06:38:14;;;;;;;14.33;11.93;;;;;;;;;;4978133;28;20437;-69
2023/03/29 06:40:39;;;;;;;16.50;11.73;;;;;;;;;;4983068;28;20445;-69
2023/03/29 06:43:05;;;;;;;14.80;11.20;;;;;;;;;;4980745;28;20274;-70
2023/03/29 06:45:32;;;;;;;17.80;11.50;;;;;;;;;;4981718;28;20198;-70
2023/03/29 06:47:57;;;;;;;13.40;11.43;;;;;;;;;;4984108;28;20433;-69
2023/03/29 06:50:23;;;;;;;15.73;11.03;;;;;;;;;;4984686;28;20894;-70
2023/03/29 06:52:48;;;;;;;16.03;11.83;;;;;;;;;;4985058;28;20284;-70
2023/03/29 06:55:14;;;;;;;19.97;12.20;;;;;;;;;;4985117;28;20236;-70
2023/03/29 06:57:40;;;;;;;16.90;12.67;;;;;;;;;;4983136;28;20660;-70
2023/03/29 07:00:26;;;;;;;16.03;11.00;;;;;;;;;;4982396;28;20494;-70
2023/03/29 07:02:52;;;;;;;13.97;10.70;;;;;;;;;;4983656;28;20208;-70
2023/03/29 07:05:18;;;;;;;15.70;11.33;;;;;;;;;;4981688;28;20453;-70
2023/03/29 07:07:55;;;;;;;16.83;12.30;;;;;;;;;;4984054;28;21048;-70
2023/03/29 07:10:21;;;;;;;16.90;11.80;;;;;;;;;;4982416;28;20944;-70
2023/03/29 07:12:48;;;;;;;17.17;11.43;;;;;;;;;;4980156;28;20468;-70
2023/03/29 07:15:13;;;;;;;16.57;11.57;;;;;;;;;;4983511;28;20459;-70
2023/03/29 07:17:38;;;;;;;14.03;11.50;;;;;;;;;;4983469;28;20429;-70
2023/03/29 07:20:07;;;;;;;15.20;11.90;;;;;;;;;;4982946;28;20186;-70
2023/03/29 07:22:32;;;;;;;16.33;12.57;;;;;;;;;;4975867;28;20265;-70
2023/03/29 07:24:59;;;;;;;13.07;11.63;;;;;;;;;;4982829;28;20529;-70
2023/03/29 07:27:25;;;;;;;19.87;13.10;;;;;;;;;;4981715;28;20194;-70
2023/03/29 07:29:51;;;;;;;17.20;12.60;;;;;;;;;;4983336;28;20998;-70
2023/03/29 07:32:16;;;;;;;19.03;12.37;;;;;;;;;;4983383;28;20588;-70
2023/03/29 07:34:41;;;;;;;16.53;12.70;;;;;;;;;;4985845;28;20209;-70
2023/03/29 07:37:08;;;;;;;16.77;12.90;;;;;;;;;;4985125;28;20277;-70
2023/03/29 07:39:34;;;;;;;20.50;13.00;;;;;;;;;;4984284;28;20585;-70
2023/03/29 07:41:59;;;;;;;18.70;13.20;;;;;;;;;;4983309;28;20901;-70
2023/03/29 07:44:25;;;;;;;18.07;12.77;;;;;;;;;;4983902;28;20447;-70
2023/03/29 07:46:51;;;;;;;19.60;13.17;;;;;;;;;;4985140;28;20178;-70
2023/03/29 07:49:16;;;;;;;18.00;13.00;;;;;;;;;;4984407;28;20437;-70
2023/03/29 07:51:42;;;;;;;15.57;12.70;;;;;;;;;;4982570;28;20218;-70
2023/03/29 07:54:07;;;;;;;19.50;12.57;;;;;;;;;;4982411;28;20204;-70
2023/03/29 07:56:33;;;;;;;17.00;12.67;;;;;;;;;;4984789;28;20426;-70
2023/03/29 07:58:58;;;;;;;20.00;13.00;;;;;;;;;;4984542;28;20232;-70
2023/03/29 08:01:24;;;;;;;24.60;11.90;;;;;;;;;;4984500;28;20534;-70
2023/03/29 08:03:49;;;;;;;17.60;12.63;;;;;;;;;;4983733;28;20278;-70
2023/03/29 08:06:15;;;;;;;16.13;12.40;;;;;;;;;;4981960;28;20445;-70
2023/03/29 08:08:41;;;;;;;18.03;12.83;;;;;;;;;;4975527;28;20189;-70
2023/03/29 08:11:07;;;;;;;16.03;11.77;;;;;;;;;;4970619;28;20479;-70
2023/03/29 08:13:33;;;;;;;13.97;10.97;;;;;;;;;;4983508;28;20190;-70
2023/03/29 08:15:59;;;;;;;11.83;10.13;;;;;;;;;;4979593;28;20490;-70
2023/03/29 08:18:24;;;;;;;12.67;11.30;;;;;;;;;;4981675;28;20201;-70
2023/03/29 08:20:50;;;;;;;13.00;10.87;;;;;;;;;;4984115;28;20913;-70
2023/03/29 08:23:16;;;;;;;13.63;10.27;;;;;;;;;;4982902;28;20186;-70
2023/03/29 08:25:41;;;;;;;14.37;10.20;;;;;;;;;;4982137;28;20447;-70
2023/03/29 08:28:06;;;;;;;14.97;10.80;;;;;;;;;;4980802;28;20657;-70
2023/03/29 08:30:32;;;;;;;12.43;10.40;;;;;;;;;;4984702;28;20233;-70
2023/03/29 08:32:57;;;;;;;12.47;9.30;;;;;;;;;;4984722;28;20255;-70
2023/03/29 08:35:22;;;;;;;12.40;10.10;;;;;;;;;;4984071;28;20194;-70
2023/03/29 08:37:48;;;;;;;14.37;10.80;;;;;;;;;;4981650;28;20534;-70
2023/03/29 08:40:23;;;;;;;14.10;11.10;;;;;;;;;;4979989;28;20264;-70
2023/03/29 08:42:56;;;;;;;10.93;9.80;;;;;;;;;;4984655;28;20182;-70
2023/03/29 08:45:38;;;;;;;14.80;10.70;;;;;;;;;;4985101;28;20502;-70
2023/03/29 08:48:09;;;;;;;10.90;9.57;;;;;;;;;;4982969;28;20871;-70
2023/03/29 08:50:40;;;;;;;11.67;9.13;;;;;;;;;;4984117;28;20502;-70
2023/03/29 08:53:21;;;;;;;14.63;10.43;;;;;;;;;;5000247;28;20440;-70
2023/03/29 08:55:47;;;;;;;11.60;9.23;;;;;;;;;;4975877;28;20596;-70
2023/03/29 08:58:17;;;;;;;13.33;9.93;;;;;;;;;;4981478;28;20929;-70
2023/03/29 09:00:45;;;;;;;10.20;8.93;;;;;;;;;;4984438;28;20460;-70
2023/03/29 09:03:24;;;;;;;10.03;8.93;;;;;;;;;;4982200;28;20436;-70
2023/03/29 09:05:58;;;;;;;14.13;8.67;;;;;;;;;;4979776;28;20494;-70
2023/03/29 09:08:23;;;;;;;18.33;9.20;;;;;;;;;;4978823;28;20879;-70
2023/03/29 09:10:51;;;;;;;13.07;8.90;;;;;;;;;;4979841;28;20500;-70
2023/03/29 09:13:32;;;;;;;15.20;9.57;;;;;;;;;;4972805;28;20220;-70
2023/03/29 09:16:13;;;;;;;11.57;8.33;;;;;;;;;;4980672;28;20992;-70
2023/03/29 09:18:45;;;;;;;15.80;10.17;;;;;;;;;;4975471;28;20429;-70
2023/03/29 09:21:16;;;;;;;13.60;9.27;;;;;;;;;;4980103;28;20458;-69
2023/03/29 09:23:51;;;;;;;14.77;9.93;;;;;;;;;;4983563;28;20869;-71
2023/03/29 09:26:23;;;;;;;10.43;8.83;;;;;;;;;;4977240;28;20907;-70
2023/03/29 09:29:01;;;;;;;9.80;8.43;;;;;;;;;;4978678;28;20443;-70
2023/03/29 09:31:32;;;;;;;11.03;8.43;;;;;;;;;;4982321;28;20555;-69
2023/03/29 09:34:00;;;;;;;11.90;8.83;;;;;;;;;;4980994;28;20957;-70
2023/03/29 09:36:49;;;;;;;16.67;9.30;;;;;;;;;;4975808;28;20464;-69
2023/03/29 09:39:15;;;;;;;13.73;8.23;;;;;;;;;;4982418;28;21024;-71
2023/03/29 09:41:46;;;;;;;12.13;8.53;;;;;;;;;;4971840;23;20580;-76
2023/03/29 09:44:14;;;;;;;11.03;7.70;;;;;;;;;;4962564;28;20210;-75
2023/03/29 09:46:41;;;;;;;11.13;8.20;;;;;;;;;;4977737;28;20453;-75
2023/03/29 09:49:11;;;;;;;13.03;9.87;;;;;;;;;;4962652;28;20814;-76
2023/03/29 09:51:37;;;;;;;12.10;8.97;;;;;;;;;;4973368;28;20755;-76
2023/03/29 09:54:02;;;;;;;10.20;7.87;;;;;;;;;;4965211;28;20444;-76
2023/03/29 09:56:28;;;;;;;13.37;8.47;;;;;;;;;;4966776;28;20417;-75
2023/03/29 09:58:53;;;;;;;14.53;8.77;;;;;;;;;;4963648;28;20183;-76
2023/03/29 10:01:19;;;;;;;13.97;9.33;;;;;;;;;;4964207;28;20480;-76
2023/03/29 10:03:48;;;;;;;11.90;8.77;;;;;;;;;;4967120;28;20182;-73
2023/03/29 10:06:15;;;;;;;10.83;8.30;;;;;;;;;;4964041;28;20266;-77
2023/03/29 10:08:42;;;;;;;15.57;9.73;;;;;;;;;;4963056;28;20908;-76
2023/03/29 10:11:12;;;;;;;14.03;9.07;;;;;;;;;;4967259;28;20480;-76
2023/03/29 10:13:43;;;;;;;17.27;8.80;;;;;;;;;;4966579;28;20479;-77
2023/03/29 10:16:15;;;;;;;13.07;8.57;;;;;;;;;;4965415;28;20413;-76
2023/03/29 10:18:41;;;;;;;10.63;8.17;;;;;;;;;;4964590;28;20421;-75
2023/03/29 10:21:10;;;;;;;11.70;9.10;;;;;;;;;;4968823;28;20449;-75
2023/03/29 10:23:36;;;;;;;11.27;8.57;;;;;;;;;;4964858;28;20269;-76
2023/03/29 10:26:03;;;;;;;12.83;9.00;;;;;;;;;;4965580;28;20422;-76
2023/03/29 10:28:29;;;;;;;13.10;8.63;;;;;;;;;;4965002;28;20424;-76
2023/03/29 10:30:56;;;;;;;14.30;8.60;;;;;;;;;;4966335;28;20441;-76
2023/03/29 10:33:23;;;;;;;17.17;8.77;;;;;;;;;;4967478;28;20489;-76
2023/03/29 10:35:49;;;;;;;14.00;9.60;;;;;;;;;;4966236;28;20440;-76
2023/03/29 10:38:19;;;;;;;14.10;9.27;;;;;;;;;;4964138;28;20437;-77
2023/03/29 10:40:46;;;;;;;13.30;9.57;;;;;;;;;;4967331;28;20520;-76
2023/03/29 10:43:18;;;;;;;13.50;9.00;;;;;;;;;;4964098;28;20439;-76
2023/03/29 10:45:46;;;;;;;18.03;10.77;;;;;;;;;;4962633;28;20441;-76
2023/03/29 10:48:13;;;;;;;16.40;9.00;;;;;;;;;;4964783;28;20426;-76
2023/03/29 10:50:39;;;;;;;12.80;8.60;;;;;;;;;;4962557;28;20465;-76
2023/03/29 10:53:09;;;;;;;13.80;9.80;;;;;;;;;;4962829;28;20474;-76
2023/03/29 10:55:39;;;;;;;16.97;10.03;;;;;;;;;;4965305;28;20606;-76
2023/03/29 10:58:05;;;;;;;16.60;10.30;;;;;;;;;;4966932;28;20907;-75
2023/03/29 11:00:42;;;;;;;15.03;9.87;;;;;;;;;;4967261;28;20442;-76
2023/03/29 11:03:26;;;;;;;12.47;9.93;;;;;;;;;;4967743;28;20671;-77
2023/03/29 11:05:51;;;;;;;12.43;8.80;;;;;;;;;;4964789;28;20502;-76
2023/03/29 11:08:29;;;;;;;15.23;10.00;;;;;;;;;;4965068;28;20848;-76
2023/03/29 11:10:54;;;;;;;13.87;9.53;;;;;;;;;;4965486;28;20202;-76
2023/03/29 11:13:28;;;;;;;13.10;8.97;;;;;;;;;;4965380;28;20416;-76
2023/03/29 11:16:16;;;;;;;13.53;10.40;;;;;;;;;;4965992;28;20193;-76
2023/03/29 11:19:03;;;;;;;14.27;9.40;;;;;;;;;;4964958;28;20419;-77
2023/03/29 11:21:34;;;;;;;16.83;10.23;;;;;;;;;;4959647;28;20943;-76
2023/03/29 11:24:02;;;;;;;13.97;10.33;;;;;;;;;;4969140;28;20413;-75
2023/03/29 11:26:30;;;;;;;14.73;9.77;;;;;;;;;;4962108;28;20422;-76
2023/03/29 11:29:08;;;;;;;14.63;10.03;;;;;;;;;;4965271;28;20497;-77
2023/03/29 11:31:36;;;;;;;16.13;10.23;;;;;;;;;;4964797;28;20468;-76
2023/03/29 11:34:20;;;;;;;18.13;10.03;;;;;;;;;;4961995;28;20942;-76
2023/03/29 11:36:52;;;;;;;13.63;9.77;;;;;;;;;;4963913;28;20419;-76
2023/03/29 11:39:31;;;;;;;13.77;9.93;;;;;;;;;;4962748;28;20438;-76
2023/03/29 11:42:01;;;;;;;19.70;11.00;;;;;;;;;;4964501;28;20850;-76
2023/03/29 11:44:28;;;;;;;16.57;9.63;;;;;;;;;;4964008;28;20426;-76
2023/03/29 11:46:59;;;;;;;12.70;9.73;;;;;;;;;;4963569;28;20852;-76
2023/03/29 11:49:27;;;;;;;13.00;9.13;;;;;;;;;;4965525;28;20429;-76
2023/03/29 11:51:55;;;;;;;14.00;9.40;;;;;;;;;;4964747;28;20492;-76
2023/03/29 11:54:33;;;;;;;15.27;9.90;;;;;;;;;;4963114;28;20479;-76
2023/03/29 11:57:01;;;;;;;13.00;8.67;;;;;;;;;;4966016;28;20425;-76
2023/03/29 11:59:33;;;;;;;12.23;8.50;;;;;;;;;;4962445;28;20452;-76
2023/03/29 12:02:19;;;;;;;14.40;9.53;;;;;;;;;;4965189;28;20457;-76
2023/03/29 12:04:47;;;;;;;13.37;9.50;;;;;;;;;;4965381;28;20441;-76
2023/03/29 12:07:18;;;;;;;9.90;8.17;;;;;;;;;;4964566;28;20418;-76
2023/03/29 12:09:49;;;;;;;11.03;8.30;;;;;;;;;;4963639;28;20465;-76
2023/03/29 12:12:20;;;;;;;13.23;9.10;;;;;;;;;;4963970;28;20976;-76
2023/03/29 12:14:51;;;;;;;11.30;8.90;;;;;;;;;;4962995;28;20426;-76
2023/03/29 12:17:20;;;;;;;13.67;9.17;;;;;;;;;;4962176;28;20922;-76
2023/03/29 12:19:49;;;;;;;13.53;8.97;;;;;;;;;;4964379;28;20878;-76
2023/03/29 12:22:14;;;;;;;14.20;9.77;;;;;;;;;;4963918;28;20422;-76
2023/03/29 12:24:40;;;;;;;12.03;9.20;;;;;;;;;;4961622;28;20789;-76
2023/03/29 12:27:07;;;;;;;15.83;10.20;;;;;;;;;;4962791;28;20191;-76
2023/03/29 12:29:50;;;;;;;13.90;10.17;;;;;;;;;;4965486;28;20441;-76
2023/03/29 12:32:48;;;;;;;13.93;9.90;;;;;;;;;;4962880;28;20467;-76
2023/03/29 12:35:29;;;;;;;15.10;9.00;;;;;;;;;;4953556;28;20433;-76
2023/03/29 12:38:03;;;;;;;13.50;9.40;;;;;;;;;;4962226;28;20444;-76
2023/03/29 12:40:34;;;;;;;11.20;8.97;;;;;;;;;;4964398;28;20905;-76
2023/03/29 12:43:05;;;;;;;13.13;10.20;;;;;;;;;;4971837;28;20445;-76
2023/03/29 12:45:33;;;;;;;14.87;9.80;;;;;;;;;;4957163;28;20481;-73
2023/03/29 12:47:59;;;;;;;14.40;10.60;;;;;;;;;;4965311;28;20907;-73
2023/03/29 12:50:27;;;;;;;12.77;8.70;;;;;;;;;;4961263;28;20458;-73
2023/03/29 12:53:00;;;;;;;14.93;9.93;;;;;;;;;;4956903;28;20210;-73
2023/03/29 12:55:31;;;;;;;15.77;9.77;;;;;;;;;;4964249;28;20414;-74
2023/03/29 12:58:01;;;;;;;12.97;9.33;;;;;;;;;;4955479;28;21025;-73
2023/03/29 13:00:49;;;;;;;11.00;9.20;;;;;;;;;;4961582;28;20453;-73
2023/03/29 13:03:20;;;;;;;13.03;9.20;;;;;;;;;;4961498;28;20516;-73
2023/03/29 13:05:45;;;;;;;16.43;9.57;;;;;;;;;;4959998;28;20522;-73
2023/03/29 13:08:31;;;;;;;14.97;9.63;;;;;;;;;;4967713;28;20805;-73
2023/03/29 13:10:57;;;;;;;16.33;8.97;;;;;;;;;;4963942;28;21195;-73
2023/03/29 13:13:27;;;;;;;10.50;9.40;;;;;;;;;;4965466;28;20475;-74
2023/03/29 13:15:52;;;;;;;10.80;8.60;;;;;;;;;;4966593;28;20666;-73
2023/03/29 13:18:36;;;;;;;11.60;9.50;;;;;;;;;;4957921;28;20430;-73
2023/03/29 13:21:10;;;;;;;16.23;9.23;;;;;;;;;;4967830;28;20206;-73
2023/03/29 13:24:00;;;;;;;13.43;9.10;;;;;;;;;;4967025;28;20433;-74
2023/03/29 13:26:44;;;;;;;12.47;9.87;;;;;;;;;;4958500;28;20421;-73
2023/03/29 13:29:28;;;;;;;13.37;10.07;;;;;;;;;;4966023;28;20430;-73
2023/03/29 13:32:14;;;;;;;11.03;9.20;;;;;;;;;;4966867;28;20850;-73
2023/03/29 13:34:43;;;;;;;11.33;9.47;;;;;;;;;;4967120;28;20517;-73
2023/03/29 13:37:17;;;;;;;11.57;9.50;;;;;;;;;;4967081;28;20415;-73
2023/03/29 13:39:50;;;;;;;16.10;10.33;;;;;;;;;;4967169;28;20433;-74
2023/03/29 13:42:34;;;;;;;10.50;9.40;;;;;;;;;;4967475;28;20914;-74
2023/03/29 13:45:13;;;;;;;14.03;8.90;;;;;;;;;;4967027;28;20425;-74
2023/03/29 13:47:42;;;;;;;15.63;8.63;;;;;;;;;;4966584;28;20413;-73
2023/03/29 13:50:15;;;;;;;10.70;9.27;;;;;;;;;;4966331;28;20490;-74
2023/03/29 13:52:42;;;;;;;10.57;8.57;;;;;;;;;;4966634;28;20518;-74
2023/03/29 13:55:13;;;;;;;11.20;8.20;;;;;;;;;;4967823;28;20437;-74
2023/03/29 13:58:05;;;;;;;9.00;7.70;;;;;;;;;;4964582;28;20520;-73
2023/03/29 14:00:31;;;;;;;10.87;8.60;;;;;;;;;;4962381;28;20458;-73
2023/03/29 14:03:03;;;;;;;11.60;7.40;;;;;;;;;;4960229;28;20437;-73
2023/03/29 14:05:33;;;;;;;9.73;7.80;;;;;;;;;;4952344;28;20866;-73
2023/03/29 14:08:04;;;;;;;12.63;7.40;;;;;;;;;;4963964;28;20426;-73
2023/03/29 14:10:34;;;;;;;11.70;6.77;;;;;;;;;;4964878;28;20560;-73
2023/03/29 14:13:02;;;;;;;9.00;6.10;;;;;;;;;;4965291;28;20478;-73
2023/03/29 14:15:36;;;;;;;10.13;7.23;;;;;;;;;;4964401;28;20513;-73
2023/03/29 14:18:02;;;;;;;11.83;7.27;;;;;;;;;;4954441;28;20434;-73
2023/03/29 14:20:29;;;;;;;10.80;6.60;;;;;;;;;;4959973;28;20982;-73
2023/03/29 14:22:54;;;;;;;7.33;6.60;;;;;;;;;;4950876;28;20191;-73
2023/03/29 14:25:21;;;;;;;11.33;6.67;;;;;;;;;;4958110;28;20820;-73
2023/03/29 14:27:46;;;;;;;10.43;6.30;;;;;;;;;;4955557;28;20228;-73
2023/03/29 14:30:30;;;;;;;9.37;6.00;;;;;;;;;;4954921;28;20458;-73
2023/03/29 14:32:56;;;;;;;6.40;5.80;;;;;;;;;;4959832;28;20736;-73
2023/03/29 14:35:27;;;;;;;9.93;7.50;;;;;;;;;;4962180;28;20433;-73
2023/03/29 14:37:52;;;;;;;7.90;6.27;;;;;;;;;;4963149;28;20178;-73
2023/03/29 14:40:18;;;;;;;8.00;5.80;;;;;;;;;;4965642;28;20512;-73
2023/03/29 14:42:44;;;;;;;10.17;6.60;;;;;;;;;;4965257;28;20187;-73